createdAt,value
2018-01-28T00:00:49.184Z,78.10
2018-01-28T00:03:16.826Z,77.90
2018-01-28T00:05:44.396Z,78.40
2018-01-28T00:08:12.033Z,78.50
2018-01-28T00:10:40.377Z,78.50
2018-01-28T00:13:07.989Z,78.40
2018-01-28T00:15:35.605Z,78.60
2018-01-28T00:18:03.202Z,78.00
2018-01-28T00:20:30.780Z,78.30
2018-01-28T00:22:58.373Z,78.90
2018-01-28T00:25:25.949Z,78.40
2018-01-28T00:27:53.554Z,78.80
2018-01-28T00:30:21.129Z,78.60
2018-01-28T00:32:49.537Z,77.70
2018-01-28T00:35:17.106Z,77.70
2018-01-28T00:37:44.684Z,77.20
2018-01-28T00:40:12.280Z,76.80
2018-01-28T00:42:39.861Z,77.10
2018-01-28T00:45:07.459Z,76.40
2018-01-28T00:47:35.026Z,76.60
2018-01-28T00:50:03.422Z,75.90
2018-01-28T00:52:31.006Z,75.90
2018-01-28T00:54:59.366Z,75.60
2018-01-28T00:57:27.704Z,74.40
2018-01-28T00:59:55.302Z,74.30
2018-01-28T01:02:22.886Z,74.60
2018-01-28T01:04:50.485Z,74.50
2018-01-28T01:07:18.087Z,74.40
2018-01-28T01:09:45.686Z,74.70
2018-01-28T01:12:13.253Z,75.30
2018-01-28T01:14:40.857Z,74.70
2018-01-28T01:17:08.440Z,74.30
2018-01-28T01:19:36.047Z,74.80
2018-01-28T01:22:03.613Z,74.90
2018-01-28T01:24:31.210Z,74.50
2018-01-28T01:26:59.553Z,74.40
2018-01-28T01:29:27.150Z,74.40
2018-01-28T01:31:55.498Z,74.60
2018-01-28T01:34:23.095Z,74.60
2018-01-28T01:36:50.662Z,74.10
2018-01-28T01:39:18.257Z,74.40
2018-01-28T01:41:45.880Z,74.30
2018-01-28T01:44:13.468Z,74.80
2018-01-28T01:46:41.047Z,74.10
2018-01-28T01:49:08.639Z,74.30
2018-01-28T01:51:37.010Z,74.40
2018-01-28T01:54:05.414Z,74.30
2018-01-28T01:56:33.005Z,74.30
2018-01-28T01:59:00.580Z,73.60
2018-01-28T02:01:28.179Z,73.80
2018-01-28T02:03:55.754Z,73.30
2018-01-28T02:06:23.345Z,73.80
2018-01-28T02:08:50.918Z,74.00
2018-01-28T02:11:18.509Z,73.90
2018-01-28T02:13:47.543Z,74.10
2018-01-28T02:16:15.144Z,74.00
2018-01-28T02:18:42.713Z,74.10
2018-01-28T02:21:11.071Z,73.90
2018-01-28T02:23:38.651Z,73.90
2018-01-28T02:26:07.032Z,73.90
2018-01-28T02:28:34.610Z,73.90
2018-01-28T02:31:02.314Z,73.80
2018-01-28T02:33:29.893Z,73.40
2018-01-28T02:35:57.495Z,73.30
2018-01-28T02:38:25.063Z,73.80
2018-01-28T02:40:53.380Z,73.60
2018-01-28T02:43:20.954Z,73.20
2018-01-28T02:45:48.545Z,73.80
2018-01-28T02:48:16.121Z,73.30
2018-01-28T02:50:43.713Z,73.10
2018-01-28T02:53:11.281Z,73.30
2018-01-28T02:55:38.892Z,72.40
2018-01-28T02:58:06.661Z,72.80
2018-01-28T03:00:34.270Z,72.90
2018-01-28T03:03:01.850Z,72.90
2018-01-28T03:05:30.209Z,73.00
2018-01-28T03:07:57.781Z,72.80
2018-01-28T03:10:26.150Z,72.30
2018-01-28T03:12:54.509Z,72.30
2018-01-28T03:15:22.133Z,72.30
2018-01-28T03:17:49.716Z,71.40
2018-01-28T03:20:17.285Z,71.30
2018-01-28T03:22:44.877Z,71.90
2018-01-28T03:25:13.218Z,71.10
2018-01-28T03:27:40.810Z,71.10
2018-01-28T03:30:09.143Z,71.10
2018-01-28T03:32:36.732Z,71.10
2018-01-28T03:35:04.306Z,70.80
2018-01-28T03:37:32.660Z,70.70
2018-01-28T03:40:00.227Z,70.70
2018-01-28T03:42:27.866Z,71.00
2018-01-28T03:44:55.429Z,70.60
2018-01-28T03:47:23.022Z,70.70
2018-01-28T03:49:51.421Z,69.40
2018-01-28T03:52:19.015Z,69.40
2018-01-28T03:54:46.576Z,70.20
2018-01-28T03:57:14.170Z,69.40
2018-01-28T03:59:42.508Z,69.70
2018-01-28T04:02:10.102Z,69.60
2018-01-28T04:04:37.661Z,68.90
2018-01-28T04:07:05.251Z,69.30
2018-01-28T04:09:32.818Z,69.40
2018-01-28T04:12:00.405Z,69.10
2018-01-28T04:14:27.969Z,69.30
2018-01-28T04:16:55.562Z,69.20
2018-01-28T04:19:23.134Z,69.10
2018-01-28T04:21:50.726Z,68.30
2018-01-28T04:24:18.293Z,68.20
2018-01-28T04:26:45.914Z,68.30
2018-01-28T04:29:13.483Z,68.80
2018-01-28T04:31:41.075Z,68.70
2018-01-28T04:34:08.655Z,68.10
2018-01-28T04:36:36.231Z,68.40
2018-01-28T04:39:04.587Z,67.50
2018-01-28T04:41:32.241Z,67.50
2018-01-28T04:43:59.840Z,66.90
2018-01-28T04:46:28.164Z,67.70
2018-01-28T04:48:55.751Z,67.70
2018-01-28T04:51:23.320Z,67.30
2018-01-28T04:53:50.910Z,67.80
2018-01-28T04:56:18.474Z,68.40
2018-01-28T04:58:46.062Z,68.00
2018-01-28T05:01:13.624Z,66.30
2018-01-28T05:03:41.773Z,67.20
2018-01-28T05:06:09.352Z,67.70
2018-01-28T05:08:36.948Z,67.60
2018-01-28T05:11:04.526Z,66.50
2018-01-28T05:13:32.890Z,66.40
2018-01-28T05:16:00.457Z,67.10
2018-01-28T05:18:28.816Z,67.20
2018-01-28T05:20:56.398Z,67.10
2018-01-28T05:23:24.017Z,67.20
2018-01-28T05:25:51.824Z,67.60
2018-01-28T05:28:19.740Z,66.00
2018-01-28T05:30:48.066Z,66.40
2018-01-28T05:33:15.670Z,66.40
2018-01-28T05:35:43.237Z,66.10
2018-01-28T05:38:10.841Z,66.80
2018-01-28T05:40:39.303Z,67.40
2018-01-28T05:43:07.665Z,65.30
2018-01-28T05:45:35.626Z,65.30
2018-01-28T05:48:03.251Z,66.10
2018-01-28T05:50:30.847Z,65.60
2018-01-28T05:52:58.886Z,66.30
2018-01-28T05:55:26.517Z,65.80
2018-01-28T05:57:54.863Z,65.10
2018-01-28T06:00:22.449Z,65.00
2018-01-28T06:02:50.784Z,66.00
2018-01-28T06:05:18.411Z,66.00
2018-01-28T06:07:45.992Z,64.90
2018-01-28T06:10:13.579Z,65.00
2018-01-28T06:12:41.145Z,65.40
2018-01-28T06:15:08.732Z,64.60
2018-01-28T06:17:36.302Z,64.20
2018-01-28T06:20:03.904Z,64.30
2018-01-28T06:22:31.877Z,63.70
2018-01-28T06:24:59.526Z,64.60
2018-01-28T06:27:27.860Z,65.10
2018-01-28T06:29:55.442Z,65.10
2018-01-28T06:32:23.775Z,63.40
2018-01-28T06:34:51.784Z,64.60
2018-01-28T06:37:19.387Z,64.00
2018-01-28T06:39:46.973Z,65.00
2018-01-28T06:42:14.559Z,64.70
2018-01-28T06:44:42.149Z,64.20
2018-01-28T06:47:09.726Z,64.30
2018-01-28T06:49:37.349Z,64.40
2018-01-28T06:52:04.911Z,64.60
2018-01-28T06:54:32.505Z,63.70
2018-01-28T06:57:00.068Z,63.60
2018-01-28T06:59:27.639Z,63.40
2018-01-28T07:01:55.226Z,63.30
2018-01-28T07:04:22.797Z,64.40
2018-01-28T07:06:50.387Z,64.10
2018-01-28T07:09:17.951Z,64.00
2018-01-28T07:11:45.850Z,63.10
2018-01-28T07:14:13.450Z,63.00
2018-01-28T07:16:41.041Z,63.80
2018-01-28T07:19:08.614Z,63.60
2018-01-28T07:21:36.966Z,63.70
2018-01-28T07:24:05.105Z,63.40
2018-01-28T07:26:32.696Z,63.70
2018-01-28T07:29:00.344Z,63.80
2018-01-28T07:31:27.934Z,64.10
2018-01-28T07:33:55.497Z,63.30
2018-01-28T07:36:23.088Z,63.20
2018-01-28T07:41:24.822Z,63.20
2018-01-28T07:43:53.053Z,63.80
2018-01-28T07:46:20.762Z,63.70
2018-01-28T07:48:48.371Z,62.90
2018-01-28T07:51:15.955Z,62.80
2018-01-28T07:53:43.521Z,62.90
2018-01-28T07:56:11.106Z,63.30
2018-01-28T07:58:38.664Z,63.00
2018-01-28T08:01:07.133Z,63.50
2018-01-28T08:03:34.790Z,63.40
2018-01-28T08:06:02.356Z,63.30
2018-01-28T08:08:30.449Z,63.10
2018-01-28T08:10:58.648Z,62.20
2018-01-28T08:16:31.293Z,63.00
2018-01-28T08:18:58.860Z,63.60
2018-01-28T08:21:26.445Z,62.60
2018-01-28T08:23:54.013Z,63.00
2018-01-28T08:26:21.581Z,63.00
2018-01-28T08:28:55.189Z,63.00
2018-01-28T08:31:22.753Z,62.70
2018-01-28T08:33:50.338Z,63.10
2018-01-28T08:36:17.910Z,62.20
2018-01-28T08:38:45.510Z,61.50
2018-01-28T08:41:13.095Z,61.80
2018-01-28T08:43:41.455Z,61.50
2018-01-28T08:46:09.022Z,61.50
2018-01-28T08:48:36.601Z,62.00
2018-01-28T08:51:04.161Z,62.40
2018-01-28T08:53:31.754Z,61.60
2018-01-28T08:55:59.329Z,61.80
2018-01-28T08:58:26.917Z,61.00
2018-01-28T09:00:54.480Z,61.00
2018-01-28T09:03:23.040Z,61.50
2018-01-28T09:05:50.606Z,61.70
2018-01-28T09:08:18.199Z,61.50
2018-01-28T09:10:45.885Z,62.30
2018-01-28T09:13:13.483Z,62.60
2018-01-28T09:15:41.058Z,62.10
2018-01-28T09:18:08.650Z,62.20
2018-01-28T09:20:36.231Z,62.30
2018-01-28T09:23:03.833Z,62.40
2018-01-28T09:25:31.409Z,62.20
2018-01-28T09:27:59.010Z,62.40
2018-01-28T09:30:27.633Z,62.00
2018-01-28T09:32:55.255Z,62.00
2018-01-28T09:35:23.758Z,61.80
2018-01-28T09:37:51.353Z,61.70
2018-01-28T09:40:18.917Z,62.50
2018-01-28T09:42:46.513Z,62.50
2018-01-28T09:45:14.847Z,62.10
2018-01-28T09:47:42.413Z,62.10
2018-01-28T09:50:09.993Z,61.20
2018-01-28T09:52:37.563Z,61.80
2018-01-28T09:55:05.923Z,62.70
2018-01-28T09:57:33.492Z,62.70
2018-01-28T10:00:03.198Z,62.40
2018-01-28T10:02:30.831Z,62.00
2018-01-28T10:04:58.422Z,61.50
2018-01-28T10:07:25.991Z,62.30
2018-01-28T10:09:54.349Z,61.80
2018-01-28T10:12:21.914Z,61.70
2018-01-28T10:14:49.524Z,62.10
2018-01-28T10:17:17.091Z,62.20
2018-01-28T10:19:44.687Z,63.00
2018-01-28T10:22:12.258Z,61.70
2018-01-28T10:24:40.608Z,62.80
2018-01-28T10:27:08.180Z,62.70
2018-01-28T10:29:35.772Z,62.30
2018-01-28T10:32:03.353Z,62.30
2018-01-28T10:34:30.942Z,61.60
2018-01-28T10:36:58.555Z,63.20
2018-01-28T10:39:26.884Z,61.70
2018-01-28T10:41:54.453Z,61.70
2018-01-28T10:44:22.073Z,62.00
2018-01-28T10:46:49.645Z,62.30
2018-01-28T10:49:17.227Z,62.40
2018-01-28T10:51:44.795Z,62.60
2018-01-28T10:54:12.381Z,62.80
2018-01-28T10:56:39.956Z,63.10
2018-01-28T10:59:07.518Z,63.50
2018-01-28T11:01:35.149Z,63.00
2018-01-28T11:04:03.491Z,63.60
2018-01-28T11:06:31.127Z,63.60
2018-01-28T11:08:58.698Z,63.90
2018-01-28T11:11:27.064Z,64.20
2018-01-28T11:13:54.634Z,64.20
2018-01-28T11:16:22.228Z,64.80
2018-01-28T11:18:49.793Z,64.90
2018-01-28T11:21:18.154Z,65.30
2018-01-28T11:23:45.725Z,65.40
2018-01-28T11:26:14.202Z,65.40
2018-01-28T11:28:41.740Z,65.10
2018-01-28T11:31:09.373Z,65.10
2018-01-28T11:33:36.996Z,64.80
2018-01-28T11:36:04.584Z,65.20
2018-01-28T11:38:32.154Z,65.40
2018-01-28T11:40:59.784Z,65.50
2018-01-28T11:43:27.352Z,65.10
2018-01-28T11:45:54.992Z,65.10
2018-01-28T11:48:23.326Z,65.40
2018-01-28T11:50:50.925Z,65.30
2018-01-28T11:53:19.266Z,65.90
2018-01-28T11:55:46.924Z,65.90
2018-01-28T11:58:14.527Z,65.40
2018-01-28T12:00:42.116Z,65.70
2018-01-28T12:03:09.686Z,65.60
2018-01-28T12:05:37.286Z,65.60
2018-01-28T12:08:04.861Z,66.10
2018-01-28T12:10:33.256Z,66.40
2018-01-28T12:13:01.578Z,66.30
2018-01-28T12:15:29.210Z,66.00
2018-01-28T12:17:56.816Z,66.40
2018-01-28T12:20:24.388Z,66.10
2018-01-28T12:22:52.741Z,65.60
2018-01-28T12:25:20.345Z,65.60
2018-01-28T12:27:47.949Z,65.80
2018-01-28T12:30:15.522Z,65.90
2018-01-28T12:32:43.121Z,65.00
2018-01-28T12:35:11.453Z,65.80
2018-01-28T12:37:39.078Z,65.80
2018-01-28T12:40:06.643Z,65.80
2018-01-28T12:42:34.238Z,65.60
2018-01-28T12:45:01.813Z,66.30
2018-01-28T12:47:29.445Z,66.30
2018-01-28T12:49:57.067Z,66.10
2018-01-28T12:52:24.717Z,66.10
2018-01-28T12:54:52.311Z,65.80
2018-01-28T12:57:19.893Z,65.90
2018-01-28T12:59:47.456Z,66.70
2018-01-28T13:02:15.050Z,66.50
2018-01-28T13:04:42.633Z,66.20
2018-01-28T13:07:10.273Z,66.40
2018-01-28T13:09:37.846Z,66.60
2018-01-28T13:12:05.435Z,66.70
2018-01-28T13:14:33.057Z,66.70
2018-01-28T13:17:01.164Z,67.10
2018-01-28T13:19:30.582Z,66.90
2018-01-28T13:21:59.504Z,66.90
2018-01-28T13:24:27.998Z,67.10
2018-01-28T13:26:57.018Z,67.50
2018-01-28T13:29:28.412Z,66.80
2018-01-28T13:31:58.709Z,67.60
2018-01-28T13:34:28.402Z,66.90
2018-01-28T13:36:56.896Z,67.50
2018-01-28T13:39:24.829Z,67.50
2018-01-28T13:41:52.420Z,67.40
2018-01-28T13:44:20.066Z,68.10
2018-01-28T13:46:48.045Z,68.40
2018-01-28T13:49:15.690Z,68.10
2018-01-28T13:51:44.041Z,68.60
2018-01-28T13:54:12.403Z,68.40
2018-01-28T13:56:40.026Z,68.40
2018-01-28T13:59:07.650Z,68.50
2018-01-28T14:01:35.232Z,68.80
2018-01-28T14:04:02.831Z,68.70
2018-01-28T14:06:30.419Z,68.90
2018-01-28T14:08:59.738Z,69.00
2018-01-28T14:11:27.302Z,69.00
2018-01-28T14:13:54.885Z,69.10
2018-01-28T14:16:22.509Z,69.20
2018-01-28T14:18:50.141Z,69.40
2018-01-28T14:21:18.470Z,69.30
2018-01-28T14:23:46.110Z,69.30
2018-01-28T14:26:13.681Z,69.80
2018-01-28T14:28:41.670Z,69.80
2018-01-28T14:31:09.315Z,70.10
2018-01-28T14:33:36.912Z,70.20
2018-01-28T14:36:04.579Z,69.90
2018-01-28T14:38:32.164Z,70.10
2018-01-28T14:41:00.075Z,69.90
2018-01-28T14:43:27.740Z,69.90
2018-01-28T14:45:55.310Z,69.80
2018-01-28T14:48:22.910Z,69.90
2018-01-28T14:50:50.541Z,70.20
2018-01-28T14:53:18.290Z,70.10
2018-01-28T14:55:45.857Z,69.40
2018-01-28T14:58:13.434Z,70.00
2018-01-28T15:00:41.101Z,69.60
2018-01-28T15:03:09.454Z,69.50
2018-01-28T15:05:37.052Z,69.50
2018-01-28T15:08:04.620Z,69.90
2018-01-28T15:10:32.217Z,69.80
2018-01-28T15:12:59.791Z,69.90
2018-01-28T15:15:27.431Z,70.10
2018-01-28T15:17:54.997Z,69.70
2018-01-28T15:20:22.673Z,69.60
2018-01-28T15:22:50.393Z,69.80
2018-01-28T15:25:18.029Z,70.10
2018-01-28T15:27:45.657Z,69.50
2018-01-28T15:30:13.257Z,70.20
2018-01-28T15:32:40.871Z,70.10
2018-01-28T15:35:08.458Z,70.00
2018-01-28T15:37:36.803Z,68.60
2018-01-28T15:40:11.338Z,69.60
2018-01-28T15:42:38.968Z,69.70
2018-01-28T15:45:06.790Z,70.20
2018-01-28T15:47:34.371Z,70.30
2018-01-28T15:50:01.956Z,70.20
2018-01-28T15:52:29.576Z,70.60
2018-01-28T15:54:57.161Z,70.60
2018-01-28T15:57:24.741Z,69.10
2018-01-28T15:59:52.407Z,68.90
2018-01-28T16:02:19.995Z,68.80
2018-01-28T16:04:47.636Z,68.90
2018-01-28T16:07:16.017Z,68.70
2018-01-28T16:09:44.318Z,68.70
2018-01-28T16:12:12.869Z,68.90
2018-01-28T16:14:40.465Z,69.00
2018-01-28T16:17:08.958Z,68.90
2018-01-28T16:19:36.580Z,68.80
2018-01-28T16:22:04.256Z,68.70
2018-01-28T16:24:31.873Z,68.70
2018-01-28T16:26:59.593Z,68.50
2018-01-28T16:29:27.209Z,68.70
2018-01-28T16:31:54.857Z,68.70
2018-01-28T16:34:22.463Z,69.10
2018-01-28T16:36:50.990Z,69.00
2018-01-28T16:39:18.627Z,69.00
2018-01-28T16:41:46.253Z,68.90
2018-01-28T16:44:14.698Z,69.50
2018-01-28T16:46:42.353Z,69.00
2018-01-28T16:49:09.977Z,68.90
2018-01-28T16:51:37.572Z,69.10
2018-01-28T16:54:05.282Z,69.10
2018-01-28T16:56:33.670Z,69.30
2018-01-28T16:59:01.442Z,69.30
2018-01-28T17:01:29.042Z,69.00
2018-01-28T17:03:56.615Z,69.20
2018-01-28T17:06:24.264Z,69.30
2018-01-28T17:08:51.908Z,69.10
2018-01-28T17:11:19.509Z,68.90
2018-01-28T17:13:47.082Z,69.00
2018-01-28T17:16:15.450Z,70.60
2018-01-28T17:18:43.017Z,70.60
2018-01-28T17:21:11.424Z,71.10
2018-01-28T17:23:38.993Z,71.00
2018-01-28T17:26:06.590Z,69.50
2018-01-28T17:28:34.216Z,70.80
2018-01-28T17:31:01.867Z,70.70
2018-01-28T17:33:29.488Z,69.60
2018-01-28T17:35:57.108Z,69.10
2018-01-28T17:38:24.744Z,70.80
2018-01-28T17:40:52.325Z,69.60
2018-01-28T17:43:19.917Z,69.50
2018-01-28T17:45:47.532Z,69.50
2018-01-28T17:48:15.171Z,69.30
2018-01-28T17:50:42.827Z,69.40
2018-01-28T17:53:10.457Z,70.70
2018-01-28T17:55:38.031Z,71.00
2018-01-28T17:58:05.769Z,71.00
2018-01-28T18:00:33.382Z,69.80
2018-01-28T18:03:00.981Z,69.40
2018-01-28T18:05:28.556Z,69.60
2018-01-28T18:07:56.138Z,71.10
2018-01-28T18:10:24.470Z,71.40
2018-01-28T18:12:52.064Z,71.40
2018-01-28T18:15:20.443Z,71.70
2018-01-28T18:17:48.850Z,71.30
2018-01-28T18:20:16.473Z,71.30
2018-01-28T18:22:44.116Z,70.00
2018-01-28T18:25:12.512Z,69.90
2018-01-28T18:27:40.125Z,70.00
2018-01-28T18:30:07.756Z,69.80
2018-01-28T18:32:36.107Z,71.20
2018-01-28T18:35:03.678Z,71.30
2018-01-28T18:37:35.863Z,71.40
2018-01-28T18:40:03.429Z,69.40
2018-01-28T18:42:36.369Z,69.60
2018-01-28T18:45:04.028Z,69.90
2018-01-28T18:47:31.653Z,71.10
2018-01-28T18:49:59.241Z,69.90
2018-01-28T18:52:26.848Z,69.80
2018-01-28T18:54:54.941Z,69.60
2018-01-28T18:57:22.571Z,69.80
2018-01-28T18:59:50.209Z,69.70
2018-01-28T19:02:17.825Z,69.60
2018-01-28T19:04:45.465Z,69.60
2018-01-28T19:07:13.083Z,69.60
2018-01-28T19:09:40.757Z,69.50
2018-01-28T19:12:09.098Z,69.80
2018-01-28T19:14:36.792Z,69.80
2018-01-28T19:17:04.404Z,69.70
2018-01-28T19:19:31.988Z,70.80
2018-01-28T19:21:59.619Z,69.70
2018-01-28T19:24:27.260Z,69.70
2018-01-28T19:26:55.653Z,70.10
2018-01-28T19:29:23.335Z,70.10
2018-01-28T19:31:50.955Z,69.90
2018-01-28T19:34:18.542Z,69.70
2018-01-28T19:36:46.166Z,69.60
2018-01-28T19:39:14.526Z,69.60
2018-01-28T19:41:42.130Z,69.60
2018-01-28T19:44:09.760Z,71.00
2018-01-28T19:46:38.145Z,69.80
2018-01-28T19:49:06.503Z,71.00
2018-01-28T19:51:34.196Z,71.00
2018-01-28T19:54:01.845Z,71.30
2018-01-28T19:56:30.200Z,71.10
2018-01-28T19:58:57.798Z,71.20
2018-01-28T20:01:25.367Z,71.30
2018-01-28T20:03:53.299Z,71.70
2018-01-28T20:06:21.685Z,70.00
2018-01-28T20:08:50.101Z,71.20
2018-01-28T20:11:18.636Z,71.20
2018-01-28T20:13:46.277Z,72.20
2018-01-28T20:16:13.903Z,71.40
2018-01-28T20:18:41.518Z,71.80
2018-01-28T20:21:09.147Z,71.80
2018-01-28T20:23:36.789Z,71.90
2018-01-28T20:26:04.450Z,71.60
2018-01-28T20:28:32.072Z,71.90
2018-01-28T20:30:59.719Z,72.00
2018-01-28T20:33:27.299Z,71.90
2018-01-28T20:35:54.904Z,71.60
2018-01-28T20:38:22.520Z,71.90
2018-01-28T20:40:50.147Z,71.60
2018-01-28T20:43:17.761Z,71.70
2018-01-28T20:45:45.407Z,71.50
2018-01-28T20:48:13.028Z,71.70
2018-01-28T20:50:40.666Z,71.80
2018-01-28T20:53:08.229Z,72.20
2018-01-28T20:55:35.864Z,72.20
2018-01-28T20:58:03.477Z,72.10
2018-01-28T21:00:32.021Z,72.40
2018-01-28T21:03:00.410Z,72.10
2018-01-28T21:05:28.022Z,72.10
2018-01-28T21:07:55.641Z,72.30
2018-01-28T21:10:23.282Z,72.50
2018-01-28T21:12:50.853Z,72.20
2018-01-28T21:15:18.524Z,72.20
2018-01-28T21:17:46.157Z,72.20
2018-01-28T21:20:13.874Z,71.90
2018-01-28T21:22:41.516Z,71.90
2018-01-28T21:25:09.463Z,72.50
2018-01-28T21:27:37.095Z,72.30
2018-01-28T21:30:04.708Z,72.50
2018-01-28T21:32:33.112Z,72.70
2018-01-28T21:35:00.682Z,72.70
2018-01-28T21:37:28.319Z,72.70
2018-01-28T21:39:55.945Z,72.50
2018-01-28T21:42:25.092Z,72.40
2018-01-28T21:44:52.669Z,72.30
2018-01-28T21:47:20.255Z,72.00
2018-01-28T21:49:47.876Z,71.80
2018-01-28T21:52:15.516Z,72.10
2018-01-28T21:54:43.893Z,72.20
2018-01-28T21:57:12.303Z,71.80
2018-01-28T21:59:39.875Z,71.80
2018-01-28T22:02:07.516Z,72.30
2018-01-28T22:04:35.131Z,72.50
2018-01-28T22:07:02.771Z,72.40
2018-01-28T22:09:30.378Z,72.40
2018-01-28T22:11:58.045Z,72.30
2018-01-28T22:14:25.664Z,72.20
2018-01-28T22:16:53.316Z,72.20
2018-01-28T22:19:20.907Z,72.40
2018-01-28T22:21:48.567Z,72.30
2018-01-28T22:24:16.129Z,72.30
2018-01-28T22:26:44.460Z,72.20
2018-01-28T22:29:12.096Z,72.10
2018-01-28T22:31:39.764Z,72.50
2018-01-28T22:34:07.412Z,72.40
2018-01-28T22:36:34.989Z,72.50
2018-01-28T22:39:02.598Z,72.60
2018-01-28T22:41:30.217Z,72.70
2018-01-28T22:43:57.817Z,72.50
2018-01-28T22:46:25.385Z,72.50
2018-01-28T22:48:53.739Z,72.80
2018-01-28T22:51:21.316Z,72.80
2018-01-28T22:53:48.901Z,72.80
2018-01-28T22:56:16.468Z,72.30
2018-01-28T22:58:44.057Z,72.50
2018-01-28T23:01:11.617Z,72.40
2018-01-28T23:03:39.244Z,72.50
2018-01-28T23:06:06.819Z,72.40
2018-01-28T23:08:34.444Z,72.20
2018-01-28T23:11:02.047Z,72.60
2018-01-28T23:13:29.673Z,72.60
2018-01-28T23:15:57.249Z,72.20
2018-01-28T23:18:24.880Z,72.70
2018-01-28T23:20:53.251Z,72.60
2018-01-28T23:23:20.848Z,72.60
2018-01-28T23:25:48.447Z,72.60
2018-01-28T23:28:16.043Z,72.70
2018-01-28T23:30:43.616Z,72.50
2018-01-28T23:33:11.207Z,72.60
2018-01-28T23:35:39.539Z,72.50
2018-01-28T23:38:07.122Z,72.60
2018-01-28T23:40:34.686Z,72.30
2018-01-28T23:43:02.295Z,72.50
2018-01-28T23:45:29.881Z,72.40
2018-01-28T23:47:57.441Z,72.00
2018-01-28T23:50:25.029Z,72.40
2018-01-28T23:52:52.605Z,72.40
2018-01-28T23:55:20.233Z,72.30
2018-01-28T23:57:47.805Z,72.80
